TimeEST,TemperatureF,Dew PointF,Humidity,Sea Level PressureIn,VisibilityMPH,Wind Direction,Wind SpeedMPH,Gust SpeedMPH,PrecipitationIn,Events,Conditions,WindDirDegrees,DateUTC
12:53 AM,30.9,16.0,54,30.18,10.0,WNW,3.5,-,N/A,,Partly Cloudy,290,2013-01-15 05:53:00
1:53 AM,27.0,17.1,66,30.18,10.0,North,9.2,-,N/A,,Clear,10,2013-01-15 06:53:00
2:53 AM,26.1,14.0,60,30.21,10.0,North,10.4,-,N/A,,Clear,360,2013-01-15 07:53:00
3:53 AM,25.0,12.9,60,30.20,10.0,North,8.1,-,N/A,,Clear,10,2013-01-15 08:53:00
4:53 AM,23.0,10.9,60,30.19,10.0,North,8.1,-,N/A,,Clear,10,2013-01-15 09:53:00
5:53 AM,19.9,9.0,62,30.21,10.0,NNE,10.4,-,N/A,,Clear,20,2013-01-15 10:53:00
6:53 AM,18.0,7.0,62,30.24,10.0,North,8.1,-,N/A,,Clear,10,2013-01-15 11:53:00
7:53 AM,18.0,7.0,62,30.27,10.0,NNE,3.5,-,N/A,,Clear,20,2013-01-15 12:53:00
8:53 AM,19.9,6.1,55,30.29,10.0,NNE,3.5,-,N/A,,Clear,20,2013-01-15 13:53:00
9:53 AM,21.9,6.1,51,30.29,-9999.0,NNE,3.5,-,N/A,,Clear,30,2013-01-15 14:53:00
10:53 AM,23.0,7.0,50,30.26,-9999.0,ENE,3.5,-,N/A,,Clear,60,2013-01-15 15:53:00
11:53 AM,-9999,-9999,N/A,30.20,10.0,North,-9999.0,-,N/A,,Clear,0,2013-01-15 16:53:00
12:53 PM,27.0,10.0,49,30.20,10.0,ENE,3.5,-,N/A,,Overcast,60,2013-01-15 17:53:00
1:53 PM,30.0,9.0,41,30.19,10.0,West,10.4,-,N/A,,Partly Cloudy,280,2013-01-15 18:53:00
2:53 PM,30.0,9.0,41,30.21,10.0,West,11.5,17.3,N/A,,Clear,280,2013-01-15 19:53:00
3:53 PM,28.9,9.0,43,30.22,10.0,WNW,3.5,-,N/A,,Overcast,290,2013-01-15 20:53:00
4:53 PM,26.1,8.1,47,30.22,10.0,West,9.2,-,N/A,,Clear,270,2013-01-15 21:53:00
5:53 PM,26.1,7.0,44,30.24,10.0,West,8.1,17.3,N/A,,Clear,270,2013-01-15 22:53:00
6:53 PM,24.1,6.1,46,30.25,10.0,WNW,8.1,-,N/A,,Clear,290,2013-01-15 23:53:00
7:53 PM,19.0,7.0,59,30.26,10.0,Calm,Calm,-,N/A,,Clear,0,2013-01-16 00:53:00
8:53 PM,16.0,8.1,71,30.24,10.0,Calm,Calm,-,N/A,,Clear,0,2013-01-16 01:53:00
9:53 PM,15.1,8.1,74,30.24,10.0,Calm,Calm,-,N/A,,Clear,0,2013-01-16 02:53:00
10:53 PM,12.0,6.1,77,30.23,10.0,Calm,Calm,-,N/A,,Clear,0,2013-01-16 03:53:00
11:53 PM,14.0,6.1,71,30.19,10.0,South,3.5,-,N/A,,Clear,180,2013-01-16 04:53:00